Elkhorn City, KY (41522)

11:51 AM EDT on August 31, 2015 (GMT -0400)
Ramey Flats | | Change Station
CLOSE
Current Station
Personal Weather Station
Location: Clintwood, VA
Elevation: 1795 ft
Nearby Weather Stations

Elev 1795 ft 37.21 °N, 82.44 °W | Updated 2 minutes ago

Partly Cloudy
Partly Cloudy
78.3 °F
Feels Like 81 °F
N
0.0
Wind Variable Wind from SW
Gusts 5.0 mph

Today
High -- | Low -- °F
--% Chance of Precip.
Yesterday
High -- | Low -- °F
Precip. -- in
6:58 AM 8:00 PM
Waning Gibbous, 95% visible
Pressure 30.26 in
Visibility 10.0 miles
Clouds Scattered Clouds 2400 ft
Scattered Clouds 2900 ft
Heat Index 81 °F
Dew Point 69 °F
Humidity 73%
Rainfall 0.00 in
Snow Depth Not available.
UV 5 out of 12
Pollen 8.80 out of 12
Air Quality Not available.
Flu Activity Not available.
METAR KLNP 311457Z AUTO 35004KT 10SM SCT024 SCT029 23/15 A3026 RMK AO2
Pressure 30.26 in
Visibility 10.0 miles
Clouds Scattered Clouds 2400 ft
Scattered Clouds 2900 ft
Heat Index 81 °F
Dew Point 69 °F
Humidity 73%
Rainfall 0.00 in
Snow Depth Not available.
UV 5 out of 12
Pollen 8.80 out of 12
Air Quality Not available.
Flu Activity Not available.
METAR KLNP 311457Z AUTO 35004KT 10SM SCT024 SCT029 23/15 A3026 RMK AO2

10-Day Weather Forecast

×

Almanac

Astronomy

Aug. 31, 2015 Rise Set
Actual Time
Civil Twilight
Nautical Twilight
Astronomical Twilight
Moon
Length of Visible Light
Length of Day
Tomorrow will be .
, % of the Moon is Illuminated

Today's Extremes

State Highs State Lows

Community

WunderPhotos

Upload Photos

1,851,282 photos uploaded!

WunderBlogs® & News

Nearby

Air Quality

  Air Quality AQ Index Pollutant
Not available.

Snow Depth

Station Depth Elevation

Earthquake Activity

City Distance Mag. Time & Date
Minimum magnitude displayed is 2.5.

Coastal Water Temperatures

Place Temperature

Stations

Nearby Weather Stations

Station Location Temp. Windchill Dew Point Humidity Wind Precip. Elev Updated Type